createdAt,value
2023-03-03T00:00:48.413Z,56.67
2023-03-03T00:03:16.606Z,62.93
2023-03-03T00:05:43.419Z,60.23
2023-03-03T00:08:10.458Z,57.00
2023-03-03T00:10:37.243Z,59.10
2023-03-03T00:13:03.705Z,60.63
2023-03-03T00:15:30.794Z,60.47
2023-03-03T00:17:57.293Z,56.93
2023-03-03T00:20:31.843Z,58.57
2023-03-03T00:23:07.706Z,66.63
2023-03-03T00:25:34.297Z,62.27
2023-03-03T00:28:19.669Z,65.50
2023-03-03T00:30:46.144Z,64.03
2023-03-03T00:33:28.585Z,64.93
2023-03-03T00:35:56.115Z,65.07
2023-03-03T00:38:23.050Z,63.43
2023-03-03T00:40:49.932Z,68.63
2023-03-03T00:43:28.957Z,62.20
2023-03-03T00:45:56.401Z,64.13
2023-03-03T00:48:25.098Z,66.63
2023-03-03T00:50:53.180Z,62.00
2023-03-03T00:53:20.995Z,62.90
2023-03-03T00:55:48.269Z,63.23
2023-03-03T00:58:14.985Z,61.23
2023-03-03T01:00:44.492Z,65.37
2023-03-03T01:03:14.776Z,63.07
2023-03-03T01:05:41.857Z,62.53
2023-03-03T01:08:08.373Z,64.07
2023-03-03T01:10:37.363Z,62.60
2023-03-03T01:13:04.539Z,59.60
2023-03-03T01:15:31.132Z,57.00
2023-03-03T01:17:57.603Z,58.73
2023-03-03T01:20:24.109Z,57.43
2023-03-03T01:22:50.593Z,57.77
2023-03-03T01:25:17.064Z,58.60
2023-03-03T01:27:43.510Z,57.43
2023-03-03T01:30:10.299Z,59.73
2023-03-03T01:32:36.916Z,55.23
2023-03-03T01:35:03.532Z,58.17
2023-03-03T01:37:29.988Z,59.00
2023-03-03T01:39:56.411Z,59.83
2023-03-03T01:42:22.958Z,56.30
2023-03-03T01:44:49.583Z,59.67
2023-03-03T01:47:19.349Z,60.10
2023-03-03T01:49:45.767Z,59.20
2023-03-03T01:52:33.518Z,60.40
2023-03-03T01:55:02.662Z,58.23
2023-03-03T01:57:32.167Z,64.10
2023-03-03T02:00:00.686Z,57.70
2023-03-03T02:02:28.341Z,61.97
2023-03-03T02:04:55.836Z,57.90
2023-03-03T02:07:25.714Z,56.13
2023-03-03T02:09:52.132Z,53.27
2023-03-03T02:12:20.130Z,52.73
2023-03-03T02:14:46.580Z,54.53
2023-03-03T02:17:13.026Z,56.07
2023-03-03T02:19:44.008Z,55.00
2023-03-03T02:22:11.586Z,56.00
2023-03-03T02:24:51.591Z,56.90
2023-03-03T02:27:19.707Z,61.00
2023-03-03T02:29:46.365Z,54.73
2023-03-03T02:32:12.956Z,53.80
2023-03-03T02:34:46.776Z,53.77
2023-03-03T02:37:13.247Z,56.07
2023-03-03T02:39:39.689Z,57.50
2023-03-03T02:42:06.086Z,55.37
2023-03-03T02:44:39.671Z,54.93
2023-03-03T02:47:06.379Z,62.60
2023-03-03T02:49:34.569Z,55.33
2023-03-03T02:52:02.067Z,54.97
2023-03-03T02:54:32.916Z,61.87
2023-03-03T02:57:01.470Z,60.07
2023-03-03T02:59:28.245Z,57.70
2023-03-03T03:01:56.979Z,58.43
2023-03-03T03:04:24.557Z,58.80
2023-03-03T03:06:51.713Z,61.00
2023-03-03T03:09:20.652Z,62.93
2023-03-03T03:11:49.158Z,57.47
2023-03-03T03:14:18.565Z,61.47
2023-03-03T03:16:45.133Z,61.40
2023-03-03T03:19:11.678Z,66.77
2023-03-03T03:21:39.588Z,59.80
2023-03-03T03:24:07.698Z,57.37
2023-03-03T03:26:35.994Z,60.87
2023-03-03T03:29:02.871Z,62.03
2023-03-03T03:31:29.666Z,58.60
2023-03-03T03:33:56.160Z,62.53
2023-03-03T03:36:23.658Z,61.17
2023-03-03T03:38:52.294Z,61.63
2023-03-03T03:41:18.766Z,59.07
2023-03-03T03:43:45.292Z,60.57
2023-03-03T03:46:11.860Z,56.50
2023-03-03T03:48:38.584Z,56.10
2023-03-03T03:51:06.337Z,60.37
2023-03-03T03:53:33.826Z,62.60
2023-03-03T03:56:00.368Z,55.73
2023-03-03T03:58:26.922Z,54.60
2023-03-03T04:01:02.554Z,58.80
2023-03-03T04:03:29.086Z,58.57
2023-03-03T04:05:55.524Z,62.87
2023-03-03T04:08:22.403Z,55.57
2023-03-03T04:10:49.159Z,57.30
2023-03-03T04:13:16.153Z,61.37
2023-03-03T04:15:42.738Z,62.10
2023-03-03T04:18:09.194Z,63.57
2023-03-03T04:20:35.683Z,59.03
2023-03-03T04:23:02.155Z,60.80
2023-03-03T04:25:30.662Z,63.77
2023-03-03T04:27:57.107Z,61.57
2023-03-03T04:30:23.548Z,59.30
2023-03-03T04:32:53.898Z,61.57
2023-03-03T04:35:22.832Z,65.47
2023-03-03T04:37:49.284Z,64.83
2023-03-03T04:40:18.233Z,61.50
2023-03-03T04:42:47.268Z,64.57
2023-03-03T04:45:13.733Z,62.97
2023-03-03T04:47:40.579Z,65.77
2023-03-03T04:50:08.036Z,61.10
2023-03-03T04:52:34.614Z,61.87
2023-03-03T04:55:02.826Z,68.90
2023-03-03T04:57:29.756Z,68.40
2023-03-03T04:59:57.280Z,68.60
2023-03-03T05:02:23.800Z,68.60
2023-03-03T05:04:50.370Z,68.73
2023-03-03T05:07:19.151Z,73.00
2023-03-03T05:09:45.547Z,74.50
2023-03-03T05:12:12.001Z,76.03
2023-03-03T05:14:38.474Z,79.93
2023-03-03T05:17:05.998Z,91.73
2023-03-03T05:19:32.462Z,93.17
2023-03-03T05:21:58.913Z,88.37
2023-03-03T05:24:25.316Z,89.53
2023-03-03T05:26:51.753Z,93.17
2023-03-03T05:29:18.269Z,92.47
2023-03-03T05:31:45.746Z,97.27
2023-03-03T05:34:12.332Z,95.87
2023-03-03T05:36:38.764Z,92.27
2023-03-03T05:39:05.205Z,91.43
2023-03-03T05:41:31.655Z,94.10
2023-03-03T05:43:58.096Z,95.60
2023-03-03T05:46:24.578Z,95.50
2023-03-03T05:48:51.021Z,97.20
2023-03-03T05:51:17.471Z,96.97
2023-03-03T05:53:43.948Z,94.13
2023-03-03T05:56:10.401Z,92.50
2023-03-03T05:58:36.896Z,94.03
2023-03-03T06:01:03.504Z,95.03
2023-03-03T06:03:29.985Z,95.67
2023-03-03T06:05:56.456Z,95.30
2023-03-03T06:08:23.269Z,92.60
2023-03-03T06:10:49.744Z,92.80
2023-03-03T06:13:16.477Z,97.10
2023-03-03T06:15:42.979Z,91.53
2023-03-03T06:18:09.493Z,99.50
2023-03-03T06:20:36.626Z,96.67
2023-03-03T06:23:03.115Z,95.67
2023-03-03T06:25:29.663Z,94.30
2023-03-03T06:27:56.401Z,85.17
2023-03-03T06:30:22.909Z,93.43
2023-03-03T06:32:49.308Z,88.13
2023-03-03T06:35:15.812Z,88.47
2023-03-03T06:37:42.324Z,93.37
2023-03-03T06:40:09.214Z,83.20
2023-03-03T06:42:35.709Z,82.50
2023-03-03T06:45:02.141Z,87.67
2023-03-03T06:47:28.568Z,79.40
2023-03-03T06:49:55.007Z,81.70
2023-03-03T06:52:23.381Z,75.30
2023-03-03T06:54:50.856Z,76.57
2023-03-03T06:57:30.685Z,83.60
2023-03-03T06:59:59.086Z,83.20
2023-03-03T07:02:25.567Z,73.87
2023-03-03T07:04:53.420Z,78.03
2023-03-03T07:07:24.739Z,76.47
2023-03-03T07:09:52.748Z,73.87
2023-03-03T07:12:22.197Z,72.03
2023-03-03T07:14:55.377Z,78.23
2023-03-03T07:17:23.311Z,69.70
2023-03-03T07:19:49.973Z,71.77
2023-03-03T07:22:17.702Z,73.10
2023-03-03T07:24:54.025Z,68.73
2023-03-03T07:27:23.963Z,69.13
2023-03-03T07:29:51.992Z,71.07
2023-03-03T07:32:24.668Z,66.13
2023-03-03T07:34:52.187Z,68.03
2023-03-03T07:37:21.761Z,62.93
2023-03-03T07:39:50.330Z,66.03
2023-03-03T07:42:19.942Z,64.20
2023-03-03T07:44:54.013Z,62.57
2023-03-03T07:47:23.201Z,64.07
2023-03-03T07:49:50.447Z,63.43
2023-03-03T07:52:29.204Z,63.60
2023-03-03T07:54:57.153Z,60.73
2023-03-03T07:57:29.355Z,58.07
2023-03-03T08:00:01.279Z,64.67
2023-03-03T08:02:43.745Z,63.13
2023-03-03T08:05:24.561Z,55.67
2023-03-03T08:07:51.082Z,57.87
2023-03-03T08:10:36.445Z,55.07
2023-03-03T08:13:09.028Z,59.17
2023-03-03T08:15:37.238Z,53.47
2023-03-03T08:18:11.685Z,52.47
2023-03-03T08:20:45.822Z,53.43
2023-03-03T08:23:13.291Z,53.53
2023-03-03T08:25:41.210Z,51.60
2023-03-03T08:28:07.773Z,48.43
2023-03-03T08:30:34.650Z,52.13
2023-03-03T08:33:01.434Z,53.93
2023-03-03T08:35:28.202Z,51.07
2023-03-03T08:37:54.817Z,49.70
2023-03-03T08:40:21.283Z,46.77
2023-03-03T08:42:47.816Z,49.60
2023-03-03T08:45:14.719Z,45.60
2023-03-03T08:47:43.055Z,41.30
2023-03-03T08:50:09.754Z,46.27
2023-03-03T08:52:36.374Z,45.87
2023-03-03T08:55:03.265Z,47.17
2023-03-03T08:57:29.909Z,54.23
2023-03-03T08:59:56.416Z,53.57
2023-03-03T09:02:22.852Z,57.20
2023-03-03T09:04:49.373Z,55.07
2023-03-03T09:07:15.905Z,53.90
2023-03-03T09:09:42.331Z,54.10
2023-03-03T09:12:16.551Z,55.50
2023-03-03T09:14:43.206Z,53.30
2023-03-03T09:17:36.059Z,55.73
2023-03-03T09:20:11.590Z,50.10
2023-03-03T09:22:38.242Z,48.53
2023-03-03T09:25:14.555Z,57.20
2023-03-03T09:27:41.597Z,55.03
2023-03-03T09:30:31.431Z,64.47
2023-03-03T09:32:58.351Z,61.23
2023-03-03T09:35:34.941Z,54.47
2023-03-03T09:38:02.226Z,55.93
2023-03-03T09:40:54.256Z,57.33
2023-03-03T09:43:38.729Z,54.90
2023-03-03T09:46:17.546Z,56.13
2023-03-03T09:48:56.636Z,56.07
2023-03-03T09:51:36.810Z,49.73
2023-03-03T09:54:03.223Z,58.13
2023-03-03T09:56:29.695Z,51.90
2023-03-03T09:59:08.224Z,54.97
2023-03-03T10:01:53.692Z,55.87
2023-03-03T10:04:25.545Z,53.60
2023-03-03T10:07:14.976Z,56.47
2023-03-03T10:10:00.455Z,53.53
2023-03-03T10:12:46.417Z,56.97
2023-03-03T10:15:31.786Z,53.97
2023-03-03T10:18:04.410Z,55.27
2023-03-03T10:20:49.418Z,63.80
2023-03-03T10:23:22.731Z,59.17
2023-03-03T10:25:52.664Z,52.77
2023-03-03T10:28:36.141Z,51.27
2023-03-03T10:31:41.085Z,52.07
2023-03-03T10:34:07.739Z,52.27
2023-03-03T10:36:40.249Z,54.10
2023-03-03T10:39:14.828Z,53.40
2023-03-03T10:42:04.094Z,54.93
2023-03-03T10:44:50.934Z,54.57
2023-03-03T10:47:20.138Z,52.77
2023-03-03T10:50:00.202Z,52.13
2023-03-03T10:52:33.835Z,52.07
2023-03-03T10:55:19.042Z,55.33
2023-03-03T10:57:56.574Z,53.60
2023-03-03T11:00:36.129Z,56.07
2023-03-03T11:03:14.572Z,51.13
2023-03-03T11:05:58.275Z,57.83
2023-03-03T11:08:41.358Z,55.13
2023-03-03T11:11:23.270Z,53.97
2023-03-03T11:14:13.734Z,55.30
2023-03-03T11:17:01.340Z,54.70
2023-03-03T11:19:52.754Z,54.53
2023-03-03T11:22:31.524Z,55.30
2023-03-03T11:25:07.045Z,58.73
2023-03-03T11:27:40.428Z,51.80
2023-03-03T11:30:07.013Z,53.63
2023-03-03T11:32:49.126Z,53.77
2023-03-03T11:35:19.393Z,54.53
2023-03-03T11:37:45.886Z,54.43
2023-03-03T11:40:16.728Z,52.83
2023-03-03T11:42:58.550Z,54.87
2023-03-03T11:45:39.776Z,56.37
2023-03-03T11:48:12.921Z,55.67
2023-03-03T11:50:43.560Z,49.30
2023-03-03T11:53:29.149Z,50.93
2023-03-03T11:56:02.865Z,51.73
2023-03-03T11:58:39.484Z,52.47
2023-03-03T12:01:15.189Z,55.83
2023-03-03T12:03:45.427Z,60.50
2023-03-03T12:06:15.256Z,56.57
2023-03-03T12:08:48.108Z,50.37
2023-03-03T12:11:17.364Z,56.03
2023-03-03T12:13:53.652Z,54.47
2023-03-03T12:16:25.760Z,50.60
2023-03-03T12:18:52.225Z,52.23
2023-03-03T12:21:37.273Z,49.57
2023-03-03T12:24:04.824Z,48.00
2023-03-03T12:26:34.527Z,51.37
2023-03-03T12:29:30.242Z,47.83
2023-03-03T12:32:04.777Z,46.63
2023-03-03T12:34:31.288Z,46.70
2023-03-03T12:37:00.892Z,45.60
2023-03-03T12:39:35.546Z,42.27
2023-03-03T12:42:23.491Z,48.93
2023-03-03T12:45:03.017Z,47.00
2023-03-03T12:47:33.443Z,44.43
2023-03-03T12:50:09.218Z,42.33
2023-03-03T12:52:47.680Z,46.60
2023-03-03T12:55:34.053Z,47.60
2023-03-03T12:58:08.081Z,41.97
2023-03-03T13:00:49.792Z,41.97
2023-03-03T13:03:16.371Z,45.83
2023-03-03T13:05:51.511Z,40.97
2023-03-03T13:08:21.178Z,47.27
2023-03-03T13:10:50.797Z,45.67
2023-03-03T13:13:26.305Z,42.73
2023-03-03T13:16:01.120Z,39.57
2023-03-03T13:18:50.420Z,41.83
2023-03-03T13:21:20.634Z,42.13
2023-03-03T13:23:56.391Z,34.87
2023-03-03T13:26:27.023Z,37.43
2023-03-03T13:28:58.816Z,38.57
2023-03-03T13:31:34.296Z,37.90
2023-03-03T13:34:02.113Z,36.57
2023-03-03T13:36:41.778Z,37.13
2023-03-03T13:39:18.916Z,37.73
2023-03-03T13:41:49.227Z,33.83
2023-03-03T13:44:27.451Z,37.93
2023-03-03T13:47:16.537Z,33.92
2023-03-03T13:49:51.887Z,30.83
2023-03-03T13:52:22.648Z,32.80
2023-03-03T13:54:56.415Z,34.40
2023-03-03T13:57:35.198Z,31.97
2023-03-03T14:00:06.919Z,31.60
2023-03-03T14:02:57.433Z,36.90
2023-03-03T14:05:38.319Z,35.17
2023-03-03T14:08:07.924Z,34.93
2023-03-03T14:10:37.884Z,33.55
2023-03-03T14:13:27.682Z,33.00
2023-03-03T14:16:03.365Z,34.40
2023-03-03T14:18:31.252Z,34.80
2023-03-03T14:21:07.769Z,31.77
2023-03-03T14:23:57.242Z,31.17
2023-03-03T14:26:23.801Z,34.00
2023-03-03T14:28:52.530Z,31.63
2023-03-03T14:31:38.172Z,33.43
2023-03-03T14:34:23.067Z,31.83
2023-03-03T14:36:55.602Z,32.03
2023-03-03T14:39:35.852Z,39.07
2023-03-03T14:42:05.613Z,30.67
2023-03-03T14:44:51.107Z,35.67
2023-03-03T14:47:22.349Z,35.73
2023-03-03T14:49:50.702Z,34.63
2023-03-03T14:52:17.569Z,35.60
2023-03-03T14:54:48.734Z,32.93
2023-03-03T14:57:16.840Z,30.70
2023-03-03T14:59:55.579Z,34.40
2023-03-03T15:02:25.042Z,31.13
2023-03-03T15:05:09.825Z,31.20
2023-03-03T15:07:37.913Z,32.37
2023-03-03T15:10:07.503Z,33.47
2023-03-03T15:12:36.253Z,33.10
2023-03-03T15:15:05.885Z,35.47
2023-03-03T15:17:36.100Z,35.77
2023-03-03T15:20:26.448Z,35.23
2023-03-03T15:23:09.589Z,32.40
2023-03-03T15:51:10.276Z,29.57
2023-03-03T15:53:56.697Z,35.43
2023-03-03T15:56:29.465Z,30.53
2023-03-03T15:59:08.381Z,29.10
2023-03-03T16:01:34.956Z,28.97
2023-03-03T16:04:05.407Z,28.63
2023-03-03T16:06:38.491Z,29.53
2023-03-03T16:09:16.868Z,31.27
2023-03-03T16:11:43.333Z,29.40
2023-03-03T16:14:24.749Z,28.33
2023-03-03T16:16:57.599Z,24.90
2023-03-03T16:19:38.110Z,26.67
2023-03-03T16:22:14.324Z,31.10
2023-03-03T16:24:44.259Z,29.60
2023-03-03T16:27:21.273Z,30.83
2023-03-03T16:30:09.782Z,29.03
2023-03-03T16:32:50.615Z,29.20
2023-03-03T16:35:20.352Z,30.03
2023-03-03T16:37:57.534Z,29.30
2023-03-03T16:40:27.049Z,30.83
2023-03-03T16:42:58.615Z,28.60
2023-03-03T16:45:30.945Z,30.03
2023-03-03T16:47:57.465Z,30.70
2023-03-03T16:50:42.730Z,30.63
2023-03-03T16:53:19.352Z,33.60
2023-03-03T16:55:53.993Z,33.63
2023-03-03T16:58:26.598Z,33.80
2023-03-03T17:00:53.163Z,33.43
2023-03-03T17:03:24.606Z,35.57
2023-03-03T17:05:53.175Z,35.40
2023-03-03T17:08:19.711Z,35.27
2023-03-03T17:10:51.143Z,36.40
2023-03-03T17:13:44.005Z,34.67
2023-03-03T17:16:13.574Z,34.33
2023-03-03T17:18:45.750Z,36.70
2023-03-03T17:21:30.876Z,37.90
2023-03-03T17:24:07.583Z,33.63
2023-03-03T17:26:43.186Z,35.40
2023-03-03T17:29:18.828Z,35.27
2023-03-03T17:31:45.312Z,37.33
2023-03-03T17:34:19.045Z,34.37
2023-03-03T17:37:00.849Z,38.87
2023-03-03T17:39:41.293Z,38.23
2023-03-03T17:42:28.268Z,36.47
2023-03-03T17:44:57.857Z,37.13
2023-03-03T17:47:40.033Z,41.00
2023-03-03T17:50:18.851Z,39.03
2023-03-03T17:52:57.420Z,39.20
2023-03-03T17:55:42.851Z,39.17
2023-03-03T17:58:35.929Z,44.37
2023-03-03T18:01:15.687Z,39.07
2023-03-03T18:03:57.963Z,42.53
2023-03-03T18:06:35.588Z,41.63
2023-03-03T18:09:25.938Z,41.50
2023-03-03T18:12:00.307Z,41.93
2023-03-03T18:14:37.814Z,41.07
2023-03-03T18:17:16.386Z,47.17
2023-03-03T18:19:49.285Z,44.87
2023-03-03T18:22:22.627Z,49.10
2023-03-03T18:24:49.097Z,44.87
2023-03-03T18:27:24.718Z,45.57
2023-03-03T18:30:11.209Z,44.57
2023-03-03T18:32:49.986Z,48.30
2023-03-03T18:35:32.375Z,44.00
2023-03-03T18:38:20.812Z,46.23
2023-03-03T18:41:13.650Z,50.27
2023-03-03T18:43:43.171Z,47.97
2023-03-03T18:46:30.029Z,48.40
2023-03-03T18:49:06.758Z,49.97
2023-03-03T18:51:39.367Z,44.87
2023-03-03T18:54:11.937Z,57.30
2023-03-03T18:56:50.200Z,49.80
2023-03-03T18:59:35.054Z,47.90
2023-03-03T19:02:20.866Z,52.80
2023-03-03T19:04:47.327Z,56.70
2023-03-03T19:07:16.010Z,49.47
2023-03-03T19:09:49.479Z,51.23
2023-03-03T19:12:16.556Z,49.40
2023-03-03T19:14:49.441Z,57.47
2023-03-03T19:17:19.251Z,55.63
2023-03-03T19:20:02.161Z,53.93
2023-03-03T19:22:30.854Z,53.27
2023-03-03T19:25:09.619Z,53.90
2023-03-03T19:27:41.925Z,51.83
2023-03-03T19:30:22.572Z,57.90
2023-03-03T19:33:10.080Z,60.23
2023-03-03T19:35:54.362Z,53.07
2023-03-03T19:38:32.388Z,52.97
2023-03-03T19:41:00.930Z,54.80
2023-03-03T19:43:27.641Z,54.87
2023-03-03T19:46:01.499Z,51.97
2023-03-03T19:48:31.109Z,58.87
2023-03-03T19:51:09.193Z,59.43
2023-03-03T19:53:45.190Z,66.57
2023-03-03T19:56:19.925Z,61.17
2023-03-03T19:58:52.125Z,62.17
2023-03-03T20:01:24.552Z,64.27
2023-03-03T20:03:51.041Z,74.30
2023-03-03T20:06:24.587Z,83.80
2023-03-03T20:09:10.078Z,81.20
2023-03-03T20:11:48.434Z,80.13
2023-03-03T20:14:31.596Z,83.23
2023-03-03T20:17:03.143Z,88.50
2023-03-03T20:19:41.822Z,87.33
2023-03-03T20:22:13.427Z,93.80
2023-03-03T20:25:15.559Z,86.23
2023-03-03T20:27:50.653Z,84.57
2023-03-03T20:30:26.298Z,80.33
2023-03-03T20:33:15.859Z,87.23
2023-03-03T20:35:48.848Z,87.67
2023-03-03T20:38:27.587Z,86.77
2023-03-03T20:41:05.529Z,79.27
2023-03-03T20:43:41.212Z,82.83
2023-03-03T20:46:26.446Z,85.40
2023-03-03T20:49:05.962Z,87.70
2023-03-03T20:51:35.397Z,83.20
2023-03-03T20:54:24.977Z,82.53
2023-03-03T20:57:05.423Z,81.53
2023-03-03T20:59:50.847Z,82.83
2023-03-03T21:02:35.365Z,86.27
2023-03-03T21:05:15.883Z,86.50
2023-03-03T21:07:56.586Z,81.43
2023-03-03T21:10:24.886Z,86.13
2023-03-03T21:12:52.580Z,79.37
2023-03-03T21:15:30.449Z,80.73
2023-03-03T21:17:58.192Z,77.90
2023-03-03T21:20:27.784Z,87.73
2023-03-03T21:22:54.869Z,79.50
2023-03-03T21:25:39.909Z,71.03
2023-03-03T21:28:17.099Z,74.57
2023-03-03T21:31:02.027Z,75.10
2023-03-03T21:33:42.179Z,75.63
2023-03-03T21:36:12.906Z,75.47
2023-03-03T21:38:39.866Z,70.37
2023-03-03T21:41:07.288Z,72.20
2023-03-03T21:43:35.192Z,78.67
2023-03-03T21:46:01.775Z,69.57
2023-03-03T21:48:28.376Z,69.87
2023-03-03T21:50:54.897Z,67.67
2023-03-03T21:53:22.756Z,70.47
2023-03-03T21:55:53.221Z,80.33
2023-03-03T21:58:19.713Z,70.00
2023-03-03T22:00:46.314Z,70.27
2023-03-03T22:03:13.968Z,63.70
2023-03-03T22:05:43.789Z,64.50
2023-03-03T22:08:10.288Z,62.83
2023-03-03T22:10:36.833Z,60.77
2023-03-03T22:13:03.361Z,59.13
2023-03-03T22:15:33.261Z,54.73
2023-03-03T22:18:00.467Z,58.73
2023-03-03T22:20:27.151Z,57.87
2023-03-03T22:22:53.684Z,50.63
2023-03-03T22:25:20.198Z,52.10
2023-03-03T22:27:46.748Z,49.40
2023-03-03T22:30:13.556Z,53.90
2023-03-03T22:32:40.128Z,50.77
2023-03-03T22:35:07.264Z,51.00
2023-03-03T22:37:33.772Z,49.00
2023-03-03T22:40:01.227Z,44.83
2023-03-03T22:42:27.864Z,45.93
2023-03-03T22:44:54.307Z,46.80
2023-03-03T22:47:20.845Z,46.27
2023-03-03T22:49:47.432Z,47.80
2023-03-03T22:52:13.886Z,41.93
2023-03-03T22:54:40.890Z,43.77
2023-03-03T22:57:07.404Z,41.03
2023-03-03T22:59:34.522Z,41.60
2023-03-03T23:02:01.069Z,40.50
2023-03-03T23:04:27.704Z,40.40
2023-03-03T23:06:54.214Z,40.90
2023-03-03T23:09:20.871Z,42.10
2023-03-03T23:11:47.371Z,41.20
2023-03-03T23:14:14.006Z,43.53
2023-03-03T23:16:40.536Z,42.50
2023-03-03T23:19:07.107Z,40.80
2023-03-03T23:21:33.787Z,39.00
2023-03-03T23:24:00.321Z,41.60
2023-03-03T23:26:26.814Z,41.53
2023-03-03T23:28:53.335Z,36.50
2023-03-03T23:31:19.861Z,40.30
2023-03-03T23:33:46.431Z,37.30
2023-03-03T23:36:12.990Z,39.30
2023-03-03T23:38:41.311Z,38.20
2023-03-03T23:41:09.205Z,36.87
2023-03-03T23:43:35.841Z,36.17
2023-03-03T23:46:02.385Z,35.77
2023-03-03T23:48:28.878Z,37.33
2023-03-03T23:50:55.405Z,34.07
2023-03-03T23:53:21.935Z,33.77
2023-03-03T23:55:48.444Z,35.10
2023-03-03T23:58:14.976Z,33.80
